createdAt,value
2022-10-30T00:00:59.685Z,84.69
2022-10-30T00:02:00.235Z,84.69
2022-10-30T00:03:01.772Z,84.59
2022-10-30T00:04:00.609Z,84.39
2022-10-30T00:05:00.912Z,84.39
2022-10-30T00:06:01.135Z,84.29
2022-10-30T00:07:01.476Z,84.29
2022-10-30T00:08:02.073Z,84.25
2022-10-30T00:09:02.011Z,84.25
2022-10-30T00:10:02.243Z,84.25
2022-10-30T00:11:02.544Z,84.25
2022-10-30T00:12:02.867Z,84.25
2022-10-30T00:13:03.192Z,84.25
2022-10-30T00:14:04.514Z,84.25
2022-10-30T00:15:03.745Z,83.95
2022-10-30T00:16:04.091Z,83.95
2022-10-30T00:17:04.334Z,83.95
2022-10-30T00:18:04.500Z,84.09
2022-10-30T00:19:04.835Z,84.19
2022-10-30T00:20:05.113Z,84.29
2022-10-30T00:21:05.418Z,84.49
2022-10-30T00:22:41.272Z,84.59
2022-10-30T00:23:41.563Z,84.59
2022-10-30T00:24:41.801Z,84.59
2022-10-30T00:25:42.123Z,84.59
2022-10-30T00:26:42.386Z,84.69
2022-10-30T00:27:42.761Z,84.69
2022-10-30T00:28:42.997Z,84.69
2022-10-30T00:29:44.167Z,84.59
2022-10-30T00:30:43.521Z,84.69
2022-10-30T00:31:43.900Z,84.69
2022-10-30T00:32:44.138Z,84.80
2022-10-30T00:33:44.478Z,84.80
2022-10-30T00:34:44.767Z,84.80
2022-10-30T00:35:45.054Z,84.89
2022-10-30T00:36:45.318Z,84.80
2022-10-30T00:37:45.634Z,84.80
2022-10-30T00:38:45.944Z,84.80
2022-10-30T00:39:46.244Z,84.89
2022-10-30T00:40:46.530Z,84.89
2022-10-30T00:41:46.875Z,85.00
2022-10-30T00:42:47.207Z,85.00
2022-10-30T00:43:47.501Z,85.10
2022-10-30T00:44:47.817Z,85.10
2022-10-30T00:45:48.075Z,85.30
2022-10-30T00:46:48.366Z,85.30
2022-10-30T00:47:48.756Z,85.30
2022-10-30T00:48:49.078Z,85.30
2022-10-30T00:49:49.275Z,85.40
2022-10-30T00:50:49.565Z,85.30
2022-10-30T00:51:49.869Z,85.20
2022-10-30T00:52:50.130Z,85.10
2022-10-30T00:53:50.466Z,84.85
2022-10-30T00:54:50.864Z,84.75
2022-10-30T00:55:51.060Z,84.85
2022-10-30T00:56:51.381Z,84.85
2022-10-30T00:57:52.022Z,84.75
2022-10-30T00:58:51.860Z,84.85
2022-10-30T00:59:52.153Z,84.85
2022-10-30T01:00:52.487Z,84.65
2022-10-30T01:01:52.764Z,84.75
2022-10-30T01:02:52.977Z,84.65
2022-10-30T01:03:53.251Z,84.65
2022-10-30T01:04:53.682Z,84.75
2022-10-30T01:05:53.953Z,84.80
2022-10-30T01:06:54.232Z,84.75
2022-10-30T01:07:54.796Z,84.75
2022-10-30T01:08:58.853Z,84.65
2022-10-30T01:09:56.571Z,84.65
2022-10-30T01:10:55.493Z,84.55
2022-10-30T01:11:55.810Z,84.65
2022-10-30T01:12:56.145Z,84.55
2022-10-30T01:13:56.298Z,84.45
2022-10-30T01:14:56.681Z,84.35
2022-10-30T01:15:56.893Z,84.25
2022-10-30T01:16:57.247Z,84.25
2022-10-30T01:17:57.781Z,84.25
2022-10-30T01:18:57.765Z,84.15
2022-10-30T01:19:58.176Z,84.25
2022-10-30T01:20:58.322Z,84.35
2022-10-30T01:21:58.677Z,84.45
2022-10-30T01:22:59.201Z,84.55
2022-10-30T01:23:59.243Z,84.45
2022-10-30T01:24:59.584Z,84.45
2022-10-30T01:25:59.892Z,84.45
2022-10-30T01:27:00.192Z,84.45
2022-10-30T01:28:00.483Z,84.45
2022-10-30T01:29:00.769Z,84.25
2022-10-30T01:30:01.140Z,84.35
2022-10-30T01:31:01.351Z,84.45
2022-10-30T01:32:01.614Z,84.45
2022-10-30T01:33:02.011Z,84.45
2022-10-30T01:34:02.246Z,84.45
2022-10-30T01:35:02.533Z,84.45
2022-10-30T01:36:02.763Z,84.35
2022-10-30T01:37:03.050Z,84.25
2022-10-30T01:38:03.291Z,84.35
2022-10-30T01:39:03.612Z,84.25
2022-10-30T01:40:03.920Z,84.15
2022-10-30T01:41:04.069Z,84.15
2022-10-30T01:42:04.404Z,84.25
2022-10-30T01:43:04.681Z,84.35
2022-10-30T01:44:04.930Z,84.25
2022-10-30T01:45:05.293Z,84.25
2022-10-30T01:46:05.570Z,84.35
2022-10-30T01:47:05.873Z,84.35
2022-10-30T01:48:06.301Z,84.49
2022-10-30T01:49:06.513Z,84.59
2022-10-30T01:50:06.804Z,84.59
2022-10-30T01:51:07.089Z,84.59
2022-10-30T01:52:07.399Z,84.69
2022-10-30T01:53:07.776Z,84.89
2022-10-30T01:54:08.081Z,84.80
2022-10-30T01:55:08.522Z,84.80
2022-10-30T01:56:08.732Z,85.00
2022-10-30T01:57:08.823Z,84.89
2022-10-30T01:58:09.233Z,84.80
2022-10-30T01:59:09.465Z,84.89
2022-10-30T02:00:09.760Z,85.14
2022-10-30T02:01:10.146Z,85.20
2022-10-30T02:02:10.426Z,85.34
2022-10-30T02:03:10.659Z,85.34
2022-10-30T02:04:10.938Z,85.54
2022-10-30T02:05:11.267Z,85.54
2022-10-30T02:06:11.613Z,85.54
2022-10-30T02:07:11.888Z,85.54
2022-10-30T02:08:12.207Z,85.54
2022-10-30T02:09:12.566Z,85.64
2022-10-30T02:10:12.779Z,85.44
2022-10-30T02:11:13.142Z,85.34
2022-10-30T02:12:13.242Z,85.34
2022-10-30T02:13:13.578Z,85.34
2022-10-30T02:14:13.885Z,85.24
2022-10-30T02:15:14.253Z,85.14
2022-10-30T02:16:14.558Z,85.03
2022-10-30T02:17:14.845Z,85.03
2022-10-30T02:18:15.112Z,85.03
2022-10-30T02:19:15.487Z,84.94
2022-10-30T02:20:15.694Z,84.83
2022-10-30T02:21:15.996Z,84.63
2022-10-30T02:22:16.303Z,84.63
2022-10-30T02:23:16.648Z,84.53
2022-10-30T02:24:16.921Z,84.53
2022-10-30T02:25:17.226Z,84.74
2022-10-30T02:26:17.514Z,84.83
2022-10-30T02:27:17.836Z,84.74
2022-10-30T02:28:18.035Z,84.74
2022-10-30T02:29:19.248Z,84.74
2022-10-30T02:30:18.655Z,84.83
2022-10-30T02:31:19.368Z,84.74
2022-10-30T02:32:19.304Z,84.83
2022-10-30T02:33:19.618Z,84.74
2022-10-30T02:34:19.934Z,84.74
2022-10-30T02:35:20.174Z,84.74
2022-10-30T02:36:20.507Z,84.53
2022-10-30T02:37:20.822Z,84.53
2022-10-30T02:38:21.130Z,84.43
2022-10-30T02:39:21.457Z,84.53
2022-10-30T02:40:21.778Z,84.33
2022-10-30T02:41:22.089Z,84.33
2022-10-30T02:42:22.411Z,84.33
2022-10-30T02:43:22.725Z,84.33
2022-10-30T02:44:23.004Z,84.33
2022-10-30T02:45:23.280Z,84.33
2022-10-30T02:46:23.579Z,84.23
2022-10-30T02:47:23.956Z,84.33
2022-10-30T02:48:24.241Z,84.33
2022-10-30T02:49:24.600Z,84.33
2022-10-30T02:50:24.915Z,84.23
2022-10-30T02:51:25.179Z,84.37
2022-10-30T02:52:25.446Z,84.27
2022-10-30T02:53:25.753Z,84.47
2022-10-30T02:54:26.052Z,84.47
2022-10-30T02:55:26.383Z,84.37
2022-10-30T02:56:26.666Z,84.57
2022-10-30T02:57:27.004Z,84.67
2022-10-30T02:58:27.287Z,84.67
2022-10-30T02:59:27.627Z,84.67
2022-10-30T03:00:27.946Z,84.67
2022-10-30T03:01:28.315Z,84.67
2022-10-30T03:02:28.504Z,84.67
2022-10-30T03:03:28.798Z,84.77
2022-10-30T03:04:29.189Z,84.88
2022-10-30T03:05:29.405Z,84.88
2022-10-30T03:06:29.685Z,84.88
2022-10-30T03:07:29.969Z,84.97
2022-10-30T03:08:30.302Z,84.91
2022-10-30T03:09:30.600Z,85.02
2022-10-30T03:10:30.897Z,85.22
2022-10-30T03:11:31.171Z,85.31
2022-10-30T03:12:31.484Z,85.22
2022-10-30T03:13:31.783Z,85.42
2022-10-30T03:14:32.490Z,85.52
2022-10-30T03:15:32.401Z,85.76
2022-10-30T03:16:32.636Z,85.72
2022-10-30T03:17:32.850Z,85.62
2022-10-30T03:18:33.142Z,85.62
2022-10-30T03:19:33.484Z,85.62
2022-10-30T03:20:33.760Z,85.66
2022-10-30T03:21:34.104Z,85.86
2022-10-30T03:22:34.428Z,85.76
2022-10-30T03:23:34.697Z,85.86
2022-10-30T03:24:34.994Z,85.86
2022-10-30T03:25:35.335Z,85.86
2022-10-30T03:26:35.708Z,85.86
2022-10-30T03:27:35.890Z,85.96
2022-10-30T03:28:36.222Z,85.96
2022-10-30T03:29:36.449Z,85.96
2022-10-30T03:30:36.755Z,85.86
2022-10-30T03:31:37.065Z,85.86
2022-10-30T03:32:37.349Z,85.66
2022-10-30T03:33:37.656Z,85.66
2022-10-30T03:34:38.048Z,85.56
2022-10-30T03:35:38.285Z,85.66
2022-10-30T03:36:38.560Z,85.66
2022-10-30T03:37:38.897Z,85.46
2022-10-30T03:38:39.242Z,85.56
2022-10-30T03:39:39.547Z,85.66
2022-10-30T03:40:39.874Z,85.56
2022-10-30T03:41:40.578Z,85.56
2022-10-30T03:42:40.414Z,85.66
2022-10-30T03:43:40.691Z,85.76
2022-10-30T03:44:41.059Z,85.66
2022-10-30T03:45:41.339Z,85.66
2022-10-30T03:46:41.678Z,85.56
2022-10-30T03:47:42.000Z,85.46
2022-10-30T03:48:42.303Z,85.36
2022-10-30T03:49:42.652Z,85.25
2022-10-30T03:50:42.941Z,85.46
2022-10-30T03:51:43.291Z,85.56
2022-10-30T03:52:43.556Z,85.56
2022-10-30T03:53:43.890Z,85.36
2022-10-30T03:54:44.214Z,85.56
2022-10-30T03:55:44.510Z,85.60
2022-10-30T03:56:44.786Z,85.80
2022-10-30T03:57:45.132Z,85.70
2022-10-30T03:58:45.423Z,85.70
2022-10-30T03:59:45.746Z,85.60
2022-10-30T04:00:45.943Z,85.60
2022-10-30T04:01:46.484Z,85.60
2022-10-30T04:02:46.523Z,85.70
2022-10-30T04:03:46.797Z,85.60
2022-10-30T04:04:47.136Z,85.60
2022-10-30T04:05:47.477Z,85.50
2022-10-30T04:06:47.744Z,85.40
2022-10-30T04:07:48.077Z,85.25
2022-10-30T04:08:48.365Z,85.16
2022-10-30T04:09:48.715Z,85.30
2022-10-30T04:10:49.074Z,85.30
2022-10-30T04:11:49.313Z,85.40
2022-10-30T04:12:49.660Z,85.40
2022-10-30T04:13:49.938Z,85.60
2022-10-30T04:14:50.148Z,85.90
2022-10-30T04:15:56.028Z,85.80
2022-10-30T04:16:51.693Z,85.70
2022-10-30T04:17:50.926Z,85.70
2022-10-30T04:18:51.293Z,85.60
2022-10-30T04:19:51.562Z,85.40
2022-10-30T04:20:51.918Z,85.50
2022-10-30T04:21:52.200Z,85.40
2022-10-30T04:22:52.519Z,85.19
2022-10-30T04:23:52.843Z,85.19
2022-10-30T04:24:53.144Z,85.30
2022-10-30T04:25:53.465Z,85.30
2022-10-30T04:26:53.751Z,85.30
2022-10-30T04:27:54.052Z,85.19
2022-10-30T04:28:54.274Z,85.10
2022-10-30T04:29:54.664Z,84.89
2022-10-30T04:30:54.838Z,84.99
2022-10-30T04:31:55.126Z,84.99
2022-10-30T04:32:55.450Z,84.99
2022-10-30T04:33:55.692Z,84.99
2022-10-30T04:34:55.992Z,84.99
2022-10-30T04:35:56.294Z,84.99
2022-10-30T04:36:56.576Z,84.89
2022-10-30T04:37:56.891Z,84.69
2022-10-30T04:38:57.263Z,84.69
2022-10-30T04:39:57.587Z,84.79
2022-10-30T04:40:57.867Z,84.79
2022-10-30T04:41:58.183Z,84.89
2022-10-30T04:42:58.868Z,84.89
2022-10-30T04:43:58.798Z,84.89
2022-10-30T04:44:59.085Z,84.99
2022-10-30T04:45:59.435Z,85.19
2022-10-30T04:46:59.749Z,85.34
2022-10-30T04:48:00.560Z,85.44
2022-10-30T04:49:00.309Z,85.34
2022-10-30T04:50:00.609Z,85.19
2022-10-30T04:51:00.970Z,85.10
2022-10-30T04:52:01.149Z,85.10
2022-10-30T04:53:01.492Z,85.10
2022-10-30T04:54:01.669Z,84.99
2022-10-30T04:55:01.952Z,84.99
2022-10-30T04:56:02.294Z,85.10
2022-10-30T04:57:02.605Z,85.10
2022-10-30T04:58:02.924Z,85.10
2022-10-30T04:59:03.167Z,85.10
2022-10-30T05:00:03.398Z,85.10
2022-10-30T05:01:04.720Z,85.10
2022-10-30T05:02:04.099Z,84.99
2022-10-30T05:03:04.395Z,85.34
2022-10-30T05:04:04.568Z,85.34
2022-10-30T05:05:04.869Z,85.24
2022-10-30T05:06:05.217Z,85.19
2022-10-30T05:07:05.512Z,85.10
2022-10-30T05:08:05.820Z,85.10
2022-10-30T05:09:06.200Z,85.10
2022-10-30T05:10:06.415Z,85.19
2022-10-30T05:11:06.590Z,85.24
2022-10-30T05:12:06.936Z,85.44
2022-10-30T05:13:07.601Z,85.44
2022-10-30T05:14:07.584Z,85.34
2022-10-30T05:15:07.919Z,85.44
2022-10-30T05:16:08.193Z,85.54
2022-10-30T05:17:08.464Z,85.74
2022-10-30T05:18:08.843Z,85.94
2022-10-30T05:19:09.126Z,86.04
2022-10-30T05:20:09.961Z,86.25
2022-10-30T05:21:09.704Z,86.49
2022-10-30T05:22:10.023Z,86.69
2022-10-30T05:23:10.318Z,87.10
2022-10-30T05:24:11.045Z,87.84
2022-10-30T05:25:10.895Z,88.35
2022-10-30T05:26:11.202Z,88.35
2022-10-30T05:27:11.515Z,88.15
2022-10-30T05:28:11.860Z,88.04
2022-10-30T05:29:12.179Z,87.84
2022-10-30T05:30:12.373Z,87.74
2022-10-30T05:31:12.644Z,87.81
2022-10-30T05:33:13.237Z,87.84
2022-10-30T05:34:13.542Z,87.84
2022-10-30T05:35:13.942Z,87.95
2022-10-30T05:36:14.182Z,88.04
2022-10-30T05:37:14.514Z,88.15
2022-10-30T05:38:14.787Z,88.25
2022-10-30T05:39:15.080Z,88.25
2022-10-30T05:40:15.363Z,88.35
2022-10-30T05:41:15.651Z,88.45
2022-10-30T05:42:15.958Z,88.55
2022-10-30T05:43:16.176Z,88.65
2022-10-30T05:44:28.825Z,88.85
2022-10-30T05:45:17.827Z,88.96
2022-10-30T05:46:17.045Z,88.96
2022-10-30T05:47:17.431Z,89.06
2022-10-30T05:48:17.854Z,89.20
2022-10-30T05:49:17.985Z,89.30
2022-10-30T05:50:18.220Z,89.30
2022-10-30T05:51:18.561Z,89.40
2022-10-30T05:52:18.779Z,89.30
2022-10-30T05:53:19.136Z,89.30
2022-10-30T05:54:19.410Z,89.30
2022-10-30T05:55:19.575Z,89.30
2022-10-30T05:56:19.953Z,89.20
2022-10-30T05:57:20.162Z,89.20
2022-10-30T05:58:20.511Z,89.20
2022-10-30T05:59:20.824Z,89.10
2022-10-30T06:00:21.151Z,89.10
2022-10-30T06:01:21.651Z,89.00
2022-10-30T06:02:21.840Z,89.00
2022-10-30T06:03:22.052Z,89.00
2022-10-30T06:04:22.305Z,88.90
2022-10-30T06:05:22.569Z,88.85
2022-10-30T06:06:22.839Z,88.90
2022-10-30T06:07:23.087Z,89.00
2022-10-30T06:08:23.301Z,88.90
2022-10-30T06:09:23.669Z,88.90
2022-10-30T06:10:23.920Z,88.90
2022-10-30T06:11:24.183Z,89.00
2022-10-30T06:12:24.423Z,89.00
2022-10-30T06:13:24.635Z,89.10
2022-10-30T06:14:25.011Z,89.30
2022-10-30T06:15:25.265Z,89.85
2022-10-30T06:16:25.632Z,89.75
2022-10-30T06:17:25.829Z,89.70
2022-10-30T06:18:26.130Z,89.61
2022-10-30T06:19:26.320Z,89.65
2022-10-30T06:20:26.690Z,89.75
2022-10-30T06:21:26.970Z,89.75
2022-10-30T06:22:27.183Z,89.75
2022-10-30T06:23:27.448Z,89.75
2022-10-30T06:24:27.676Z,89.75
2022-10-30T06:25:27.944Z,89.85
2022-10-30T06:26:28.257Z,90.05
2022-10-30T06:27:28.439Z,90.16
2022-10-30T06:28:28.678Z,90.25
2022-10-30T06:29:28.979Z,90.36
2022-10-30T06:30:29.182Z,90.50
2022-10-30T06:31:29.450Z,90.60
2022-10-30T06:32:29.692Z,90.91
2022-10-30T06:33:29.918Z,91.00
2022-10-30T06:34:30.172Z,91.31
2022-10-30T06:35:30.417Z,91.51
2022-10-30T06:36:30.666Z,91.66
2022-10-30T06:37:30.901Z,91.66
2022-10-30T06:38:31.187Z,91.66
2022-10-30T06:39:32.407Z,91.61
2022-10-30T06:40:31.764Z,91.96
2022-10-30T06:41:32.014Z,91.86
2022-10-30T06:42:32.259Z,91.71
2022-10-30T06:43:32.515Z,91.71
2022-10-30T06:44:32.898Z,91.41
2022-10-30T06:45:33.170Z,91.20
2022-10-30T06:46:33.834Z,91.11
2022-10-30T06:47:33.709Z,91.11
2022-10-30T06:48:33.963Z,91.00
2022-10-30T06:49:34.207Z,90.91
2022-10-30T06:50:34.428Z,90.91
2022-10-30T06:51:34.794Z,90.80
2022-10-30T06:52:35.060Z,90.70
2022-10-30T06:53:35.355Z,90.60
2022-10-30T06:54:35.577Z,90.45
2022-10-30T06:55:35.858Z,90.36
2022-10-30T06:56:36.107Z,90.20
2022-10-30T06:57:36.406Z,90.40
2022-10-30T06:58:36.631Z,90.25
2022-10-30T06:59:36.895Z,90.25
2022-10-30T07:00:37.236Z,90.05
2022-10-30T07:01:37.495Z,89.85
2022-10-30T07:02:37.723Z,89.75
2022-10-30T07:03:37.960Z,89.54
2022-10-30T07:04:38.317Z,89.54
2022-10-30T07:05:38.620Z,89.34
2022-10-30T07:06:38.814Z,89.00
2022-10-30T07:07:39.079Z,88.79
2022-10-30T07:08:39.301Z,88.59
2022-10-30T07:09:39.529Z,88.29
2022-10-30T07:10:39.920Z,87.99
2022-10-30T07:11:40.228Z,87.84
2022-10-30T07:12:40.443Z,87.68
2022-10-30T07:13:40.643Z,87.79
2022-10-30T07:14:41.044Z,87.88
2022-10-30T07:16:41.593Z,87.88
2022-10-30T07:17:41.806Z,87.99
2022-10-30T07:18:42.157Z,88.43
2022-10-30T07:19:42.489Z,88.53
2022-10-30T07:20:42.679Z,88.39
2022-10-30T07:21:42.937Z,88.39
2022-10-30T07:22:43.207Z,88.29
2022-10-30T07:23:43.428Z,88.29
2022-10-30T07:24:43.679Z,87.99
2022-10-30T07:25:43.900Z,87.79
2022-10-30T07:26:44.130Z,87.79
2022-10-30T07:27:44.388Z,87.58
2022-10-30T07:28:44.657Z,87.34
2022-10-30T07:29:44.939Z,87.13
2022-10-30T07:30:45.162Z,86.83
2022-10-30T07:31:57.594Z,86.53
2022-10-30T07:32:46.762Z,86.19
2022-10-30T07:33:46.009Z,85.99
2022-10-30T07:34:46.266Z,85.78
2022-10-30T07:35:46.544Z,85.68
2022-10-30T07:36:46.839Z,85.68
2022-10-30T07:37:47.094Z,85.48
2022-10-30T07:38:47.318Z,85.38
2022-10-30T07:39:47.577Z,85.38
2022-10-30T07:40:47.795Z,85.78
2022-10-30T07:41:50.176Z,85.68
2022-10-30T07:42:48.343Z,85.44
2022-10-30T07:43:48.595Z,85.24
2022-10-30T07:44:48.846Z,85.24
2022-10-30T07:45:49.101Z,85.34
2022-10-30T07:46:49.413Z,85.24
2022-10-30T07:47:49.588Z,85.38
2022-10-30T07:48:49.856Z,85.48
2022-10-30T07:49:50.114Z,85.68
2022-10-30T07:50:50.382Z,86.08
2022-10-30T07:51:50.583Z,86.08
2022-10-30T07:52:50.868Z,86.19
2022-10-30T07:53:51.160Z,86.19
2022-10-30T07:54:51.426Z,86.29
2022-10-30T07:55:51.695Z,86.53
2022-10-30T07:56:52.015Z,86.53
2022-10-30T07:57:52.314Z,86.39
2022-10-30T07:58:52.503Z,86.19
2022-10-30T07:59:52.800Z,86.19
2022-10-30T08:00:53.050Z,85.99
2022-10-30T08:01:53.432Z,85.78
2022-10-30T08:02:53.713Z,85.78
2022-10-30T08:03:53.850Z,85.68
2022-10-30T08:04:54.120Z,85.64
2022-10-30T08:05:54.418Z,85.24
2022-10-30T08:06:54.672Z,85.14
2022-10-30T08:07:54.890Z,84.93
2022-10-30T08:08:55.266Z,84.93
2022-10-30T08:09:55.551Z,84.93
2022-10-30T08:10:55.763Z,84.93
2022-10-30T08:11:56.025Z,84.63
2022-10-30T08:12:56.316Z,84.53
2022-10-30T08:13:56.563Z,84.53
2022-10-30T08:14:56.774Z,84.23
2022-10-30T08:15:57.048Z,84.12
2022-10-30T08:16:57.314Z,84.12
2022-10-30T08:17:57.911Z,84.03
2022-10-30T08:18:57.841Z,83.88
2022-10-30T08:19:58.071Z,83.68
2022-10-30T08:20:59.198Z,83.28
2022-10-30T08:22:00.030Z,83.28
2022-10-30T08:22:59.166Z,83.28
2022-10-30T08:23:59.078Z,83.18
2022-10-30T08:24:59.295Z,82.98
2022-10-30T08:25:59.581Z,82.67
2022-10-30T08:26:59.825Z,82.67
2022-10-30T08:28:00.092Z,82.87
2022-10-30T08:29:00.393Z,82.57
2022-10-30T08:30:00.574Z,82.78
2022-10-30T08:31:00.801Z,82.73
2022-10-30T08:32:01.221Z,82.33
2022-10-30T08:33:01.957Z,82.53
2022-10-30T08:34:01.743Z,82.73
2022-10-30T08:35:02.011Z,82.23
2022-10-30T08:36:02.272Z,81.93
2022-10-30T08:37:02.512Z,82.23
2022-10-30T08:38:02.748Z,81.93
2022-10-30T08:39:03.019Z,81.89
2022-10-30T08:40:03.268Z,81.89
2022-10-30T08:41:03.514Z,81.18
2022-10-30T08:42:03.818Z,81.28
2022-10-30T08:43:04.076Z,81.28
2022-10-30T08:44:04.313Z,81.04
2022-10-30T08:45:04.563Z,80.84
2022-10-30T08:46:04.872Z,80.74
2022-10-30T08:47:05.154Z,80.64
2022-10-30T08:48:05.359Z,80.64
2022-10-30T08:49:05.628Z,80.84
2022-10-30T08:50:05.853Z,80.74
2022-10-30T08:51:06.079Z,80.44
2022-10-30T08:52:06.460Z,80.54
2022-10-30T08:53:06.791Z,80.20
2022-10-30T08:54:07.004Z,80.10
2022-10-30T08:55:07.319Z,79.60
2022-10-30T08:56:07.499Z,79.25
2022-10-30T08:57:07.753Z,78.96
2022-10-30T08:58:08.006Z,79.05
2022-10-30T08:59:08.267Z,79.05
2022-10-30T09:00:08.539Z,78.75
2022-10-30T09:01:08.827Z,78.51
2022-10-30T09:02:09.152Z,78.31
2022-10-30T09:03:09.403Z,78.51
2022-10-30T09:04:09.722Z,78.71
2022-10-30T09:05:09.976Z,78.61
2022-10-30T09:06:10.246Z,78.41
2022-10-30T09:07:12.965Z,77.91
2022-10-30T09:08:10.790Z,77.91
2022-10-30T09:09:11.087Z,77.70
2022-10-30T09:10:11.341Z,77.47
2022-10-30T09:11:11.620Z,77.57
2022-10-30T09:12:11.914Z,77.37
2022-10-30T09:13:12.123Z,77.17
2022-10-30T09:14:12.358Z,76.67
2022-10-30T09:15:12.766Z,76.63
2022-10-30T09:16:13.003Z,76.83
2022-10-30T09:17:13.241Z,76.73
2022-10-30T09:18:13.485Z,76.53
2022-10-30T09:19:18.574Z,76.73
2022-10-30T09:20:15.027Z,76.93
2022-10-30T09:21:14.284Z,76.73
2022-10-30T09:22:14.510Z,76.43
2022-10-30T09:23:14.760Z,76.32
2022-10-30T09:24:16.000Z,75.99
2022-10-30T09:25:15.268Z,75.79
2022-10-30T09:26:16.990Z,75.42
2022-10-30T09:27:15.774Z,76.03
2022-10-30T09:28:16.036Z,76.03
2022-10-30T09:29:16.308Z,75.38
2022-10-30T09:30:16.533Z,75.49
2022-10-30T09:31:16.833Z,75.29
2022-10-30T09:32:17.086Z,74.85
2022-10-30T09:33:17.307Z,74.65
2022-10-30T09:34:17.674Z,74.44
2022-10-30T09:35:17.921Z,74.35
2022-10-30T09:36:21.280Z,74.21
2022-10-30T09:37:18.436Z,73.61
2022-10-30T09:38:18.977Z,73.21
2022-10-30T09:39:18.973Z,73.10
2022-10-30T09:40:20.151Z,73.10
2022-10-30T09:41:19.441Z,73.54
2022-10-30T09:42:19.701Z,73.44
2022-10-30T09:43:19.970Z,73.54
2022-10-30T09:44:20.223Z,73.64
2022-10-30T09:45:29.330Z,73.74
2022-10-30T09:46:21.707Z,73.74
2022-10-30T09:47:23.455Z,73.94
2022-10-30T09:48:21.336Z,73.41
2022-10-30T09:49:21.574Z,73.21
2022-10-30T09:50:21.843Z,73.30
2022-10-30T09:51:22.108Z,73.17
2022-10-30T09:52:22.358Z,72.87
2022-10-30T09:53:22.608Z,73.07
2022-10-30T09:54:22.862Z,73.07
2022-10-30T09:55:23.358Z,73.17
2022-10-30T09:56:23.389Z,72.87
2022-10-30T09:57:23.650Z,73.07
2022-10-30T09:58:23.900Z,73.17
2022-10-30T09:59:24.184Z,73.27
2022-10-30T10:00:24.501Z,72.77
2022-10-30T10:01:24.907Z,72.63
2022-10-30T10:02:25.189Z,72.63
2022-10-30T10:03:28.256Z,72.43
2022-10-30T10:04:26.865Z,72.43
2022-10-30T10:05:25.812Z,72.43
2022-10-30T10:06:26.040Z,72.43
2022-10-30T10:07:26.421Z,72.43
2022-10-30T10:08:26.678Z,72.03
2022-10-30T10:09:26.968Z,71.80
2022-10-30T10:10:27.184Z,71.70
2022-10-30T10:11:27.434Z,71.26
2022-10-30T10:12:27.814Z,70.96
2022-10-30T10:13:27.954Z,70.73
2022-10-30T10:14:28.264Z,70.23
2022-10-30T10:15:29.742Z,70.23
2022-10-30T10:16:28.855Z,69.69
2022-10-30T10:17:29.079Z,69.39
2022-10-30T10:18:29.890Z,69.16
2022-10-30T10:19:29.675Z,68.76
2022-10-30T10:20:29.978Z,68.96
2022-10-30T10:21:30.162Z,68.96
2022-10-30T10:22:30.509Z,68.76
2022-10-30T10:23:31.659Z,68.16
2022-10-30T10:24:31.335Z,67.63
2022-10-30T10:25:31.961Z,66.93
2022-10-30T10:26:31.598Z,67.02
2022-10-30T10:27:31.837Z,66.82
2022-10-30T10:28:36.621Z,66.59
2022-10-30T10:29:32.305Z,66.19
2022-10-30T10:30:32.554Z,66.09
2022-10-30T10:31:32.927Z,65.99
2022-10-30T10:32:33.112Z,65.99
2022-10-30T10:33:33.334Z,65.26
2022-10-30T10:34:33.656Z,64.73
2022-10-30T10:35:33.856Z,63.80
2022-10-30T10:36:34.095Z,63.30
2022-10-30T10:37:34.422Z,63.17
2022-10-30T10:38:34.619Z,62.77
2022-10-30T10:39:34.890Z,62.34
2022-10-30T10:40:35.137Z,61.94
2022-10-30T10:41:35.424Z,61.52
2022-10-30T10:42:35.676Z,60.69
2022-10-30T10:43:35.971Z,60.16
2022-10-30T10:44:36.248Z,59.86
2022-10-30T10:45:36.502Z,60.19
2022-10-30T10:46:36.760Z,60.49
2022-10-30T10:47:37.055Z,61.09
2022-10-30T10:48:37.964Z,61.02
2022-10-30T10:49:40.117Z,61.32
2022-10-30T10:50:37.897Z,61.41
2022-10-30T10:51:38.196Z,61.52
2022-10-30T10:52:38.443Z,61.52
2022-10-30T10:53:38.822Z,61.19
2022-10-30T10:54:38.998Z,61.22
2022-10-30T10:55:39.346Z,62.27
2022-10-30T10:56:39.478Z,62.77
2022-10-30T10:57:39.822Z,62.77
2022-10-30T10:58:40.093Z,62.97
2022-10-30T10:59:40.356Z,63.10
2022-10-30T11:00:40.641Z,63.60
2022-10-30T11:01:41.067Z,63.60
2022-10-30T11:02:41.341Z,63.17
2022-10-30T11:03:41.489Z,63.17
2022-10-30T11:04:41.725Z,62.54
2022-10-30T11:05:42.000Z,61.91
2022-10-30T11:06:42.278Z,61.39
2022-10-30T11:07:43.199Z,61.32
2022-10-30T11:08:42.824Z,61.91
2022-10-30T11:09:43.091Z,62.24
2022-10-30T11:10:43.348Z,62.45
2022-10-30T11:11:43.692Z,62.41
2022-10-30T11:12:43.933Z,62.21
2022-10-30T11:13:44.244Z,62.12
2022-10-30T11:14:44.472Z,61.91
2022-10-30T11:15:44.805Z,61.69
2022-10-30T11:16:45.235Z,61.39
2022-10-30T11:17:45.812Z,61.19
2022-10-30T11:18:45.906Z,61.09
2022-10-30T11:19:47.880Z,60.66
2022-10-30T11:20:47.222Z,59.70
2022-10-30T11:21:46.488Z,59.21
2022-10-30T11:22:46.754Z,58.36
2022-10-30T11:23:47.092Z,57.34
2022-10-30T11:24:47.367Z,57.14
2022-10-30T11:25:47.663Z,57.24
2022-10-30T11:26:47.960Z,56.91
2022-10-30T11:27:48.213Z,56.29
2022-10-30T11:28:48.733Z,55.57
2022-10-30T11:29:48.806Z,54.45
2022-10-30T11:30:49.086Z,54.68
2022-10-30T11:31:49.362Z,55.32
2022-10-30T11:32:49.656Z,55.32
2022-10-30T11:33:49.860Z,55.74
2022-10-30T11:34:50.095Z,55.65
2022-10-30T11:35:50.383Z,56.04
2022-10-30T11:36:50.647Z,55.65
2022-10-30T11:37:50.935Z,56.37
2022-10-30T11:38:51.187Z,56.47
2022-10-30T11:39:51.416Z,56.57
2022-10-30T11:40:51.779Z,55.65
2022-10-30T11:41:55.511Z,55.02
2022-10-30T11:42:52.291Z,54.30
2022-10-30T11:43:52.535Z,53.58
2022-10-30T11:44:52.807Z,53.08
2022-10-30T11:45:53.084Z,52.98
2022-10-30T11:46:53.567Z,52.76
2022-10-30T11:47:55.106Z,52.37
2022-10-30T11:48:53.920Z,51.75
2022-10-30T11:49:54.130Z,51.82
2022-10-30T11:50:54.410Z,51.60
2022-10-30T11:51:54.698Z,51.72
2022-10-30T11:52:54.938Z,52.04
2022-10-30T11:53:55.247Z,51.84
2022-10-30T11:54:55.462Z,52.44
2022-10-30T11:55:55.719Z,52.34
2022-10-30T11:56:55.998Z,52.04
2022-10-30T11:57:56.657Z,51.42
2022-10-30T11:58:56.589Z,51.45
2022-10-30T12:00:02.115Z,51.84
2022-10-30T12:00:58.174Z,51.32
2022-10-30T12:01:57.500Z,51.23
2022-10-30T12:02:58.033Z,51.03
2022-10-30T12:03:57.974Z,51.23
2022-10-30T12:04:58.298Z,50.83
2022-10-30T12:05:58.526Z,51.05
2022-10-30T12:06:58.774Z,50.93
2022-10-30T12:07:59.034Z,50.11
2022-10-30T12:08:59.291Z,49.91
2022-10-30T12:09:59.573Z,50.21
2022-10-30T12:10:59.845Z,50.11
2022-10-30T12:12:04.339Z,50.43
2022-10-30T12:13:01.708Z,50.83
2022-10-30T12:14:00.623Z,50.90
2022-10-30T12:15:00.923Z,50.21
2022-10-30T12:16:01.182Z,49.99
2022-10-30T12:17:01.458Z,49.59
2022-10-30T12:18:01.700Z,49.79
2022-10-30T12:19:01.973Z,50.63
2022-10-30T12:20:02.283Z,50.93
2022-10-30T12:21:02.520Z,51.35
2022-10-30T12:22:05.350Z,50.73
2022-10-30T12:23:04.037Z,50.43
2022-10-30T12:24:03.278Z,50.73
2022-10-30T12:25:03.529Z,50.43
2022-10-30T12:26:03.774Z,50.01
2022-10-30T12:27:04.031Z,50.01
2022-10-30T12:28:04.321Z,49.84
2022-10-30T12:29:04.628Z,50.34
2022-10-30T12:30:09.235Z,49.96
2022-10-30T12:31:06.163Z,50.76
2022-10-30T12:32:05.424Z,50.36
2022-10-30T12:33:05.684Z,50.06
2022-10-30T12:34:05.993Z,49.74
2022-10-30T12:35:06.250Z,49.64
2022-10-30T12:36:06.548Z,49.64
2022-10-30T12:37:06.767Z,49.37
2022-10-30T12:38:06.997Z,50.09
2022-10-30T12:39:07.285Z,51.20
2022-10-30T12:40:07.581Z,51.62
2022-10-30T12:41:07.876Z,52.26
2022-10-30T12:42:08.146Z,52.79
2022-10-30T12:43:08.368Z,53.71
2022-10-30T12:44:08.694Z,54.13
2022-10-30T12:45:08.921Z,54.93
2022-10-30T12:46:09.326Z,55.03
2022-10-30T12:47:09.462Z,54.83
2022-10-30T12:48:09.922Z,54.96
2022-10-30T12:49:10.055Z,55.26
2022-10-30T12:50:10.391Z,55.26
2022-10-30T12:51:11.059Z,55.46
2022-10-30T12:52:10.934Z,55.46
2022-10-30T12:53:11.185Z,55.26
2022-10-30T12:54:11.528Z,55.16
2022-10-30T12:55:11.727Z,55.46
2022-10-30T12:56:12.350Z,55.35
2022-10-30T12:57:12.332Z,55.55
2022-10-30T12:58:12.628Z,55.55
2022-10-30T12:59:12.915Z,55.53